Overview Statistics Trail Chart Weather Telemetry Raw packets
 

This is the latest recevied weather packets stored in our database for station/object KO4YAW. If no packets are shown the sender has not sent any weather packets the latest 10 day(s).

<< 7 8 9 10 11 12 13 >>
Time Temp. Humidity Pressure Rain* Wind** Luminosity Snow
1788475729 33.89° C 18% 1015 hPa 0 mm - 441 W/m² -
1788474829 34.44° C 18% 1015 hPa 0 mm - 511 W/m² -
1788473929 33.89° C 18% 1015.1 hPa 0 mm - 560 W/m² -
1788473029 34.44° C 17% 1015.3 hPa 0 mm - 85 W/m² -
1788472129 33.89° C 17% 1015.2 hPa 0 mm - 664 W/m² -
1788471229 33.89° C 17% 1015.3 hPa 0 mm - 714 W/m² -
1788470329 34.44° C 16% 1015.4 hPa 0 mm - 757 W/m² -
1788469429 34.44° C 16% 1015.6 hPa 0 mm - 802 W/m² -
1788468529 33.33° C 17% 1015.8 hPa 0 mm - 830 W/m² -
1788467629 33.33° C 18% 1016 hPa 0 mm - 864 W/m² -
1788466729 33.33° C 18% 1016.2 hPa 0 mm - 894 W/m² -
1788465829 32.22° C 18% 1016.4 hPa 0 mm - 876 W/m² -
1788464929 31.67° C 18% 1016.5 hPa 0 mm - 945 W/m² -
1788464029 31.67° C 19% 1016.6 hPa 0 mm - 964 W/m² -
1788463129 30.56° C 20% 1016.9 hPa 0 mm - 977 W/m² -
1788462229 30° C 21% 1017 hPa 0 mm - 853 W/m² -
1788461329 29.44° C 21% 1017.3 hPa 0 mm - 428 W/m² -
1788460429 29.44° C 20% 1017.7 hPa 0 mm - 113 W/m² -
1788459529 30° C 20% 1017.9 hPa 0 mm - 134 W/m² -
1788458629 29.44° C 21% 1017.9 hPa 0 mm - 825 W/m² -
1788457729 28.89° C 22% 1018 hPa 0 mm - 335 W/m² -
1788456829 28.33° C 22% 1018.3 hPa 0 mm - 73 W/m² -
1788455929 28.33° C 24% 1018.2 hPa 0 mm - 645 W/m² -
1788455029 27.78° C 24% 1018.3 hPa 0 mm - 468 W/m² -
1788454129 27.78° C 25% 1018.3 hPa 0 mm - 196 W/m² -

* Rain since midnight (hover to see other rain measurements)
** Current wind speed in m/s (hover to see current wind gust speed)